createdAt,value
2018-03-17T00:01:10.581Z,101102.28
2018-03-17T00:03:38.891Z,101112.83
2018-03-17T00:06:07.968Z,101105.75
2018-03-17T00:08:36.283Z,101106.02
2018-03-17T00:11:05.363Z,101106.31
2018-03-17T00:13:34.443Z,101096.32
2018-03-17T00:16:02.739Z,101106.39
2018-03-17T00:18:31.059Z,101106.73
2018-03-17T00:20:59.363Z,101105.63
2018-03-17T00:23:27.775Z,101115.70
2018-03-17T00:25:56.092Z,101106.02
2018-03-17T00:28:24.411Z,101111.02
2018-03-17T00:30:52.725Z,101099.44
2018-03-17T00:33:21.900Z,101104.37
2018-03-17T00:35:50.207Z,101113.25
2018-03-17T00:38:19.259Z,101109.92
2018-03-17T00:40:47.571Z,101120.78
2018-03-17T00:43:15.888Z,101116.45
2018-03-17T00:45:44.196Z,101108.44
2018-03-17T00:48:12.512Z,101108.09
2018-03-17T00:50:40.839Z,101118.47
2018-03-17T00:53:09.144Z,101111.63
2018-03-17T00:55:37.437Z,101115.80
2018-03-17T00:58:05.734Z,101110.18
2018-03-17T01:00:34.058Z,101115.73
2018-03-17T01:03:02.394Z,101106.16
2018-03-17T01:05:30.699Z,101117.33
2018-03-17T01:07:59.757Z,101108.66
2018-03-17T01:10:28.065Z,101102.56
2018-03-17T01:12:57.134Z,101105.78
2018-03-17T01:15:25.450Z,101111.69
2018-03-17T01:17:54.532Z,101107.73
2018-03-17T01:20:22.823Z,101118.76
2018-03-17T01:22:51.886Z,101105.03
2018-03-17T01:25:20.229Z,101102.33
2018-03-17T01:27:55.331Z,101094.77
2018-03-17T01:30:23.858Z,101094.42
2018-03-17T01:32:55.484Z,101091.37
2018-03-17T01:35:26.634Z,101093.07
2018-03-17T01:37:56.520Z,101109.78
2018-03-17T01:40:25.728Z,101091.47
2018-03-17T01:42:54.155Z,101095.78
2018-03-17T01:45:22.469Z,101082.39
2018-03-17T01:47:50.784Z,101082.12
2018-03-17T01:50:19.903Z,101090.58
2018-03-17T01:52:48.193Z,101093.42
2018-03-17T01:55:16.493Z,101094.05
2018-03-17T01:57:44.810Z,101084.09
2018-03-17T02:00:13.138Z,101094.56
2018-03-17T02:02:41.438Z,101095.61
2018-03-17T02:05:09.749Z,101086.45
2018-03-17T02:07:38.044Z,101081.60
2018-03-17T02:10:07.188Z,101089.47
2018-03-17T02:12:35.490Z,101081.56
2018-03-17T02:15:03.795Z,101081.84
2018-03-17T02:17:32.862Z,101074.08
2018-03-17T02:20:01.335Z,101069.78
2018-03-17T02:22:29.649Z,101081.56
2018-03-17T02:24:57.951Z,101069.16
2018-03-17T02:27:27.220Z,101071.55
2018-03-17T02:29:55.509Z,101062.81
2018-03-17T02:32:25.322Z,101064.61
2018-03-17T02:34:54.385Z,101063.44
2018-03-17T02:37:23.087Z,101055.19
2018-03-17T02:39:51.610Z,101050.75
2018-03-17T02:42:20.798Z,101048.39
2018-03-17T02:44:49.125Z,101058.68
2018-03-17T02:47:17.423Z,101055.62
2018-03-17T02:49:46.458Z,101060.83
2018-03-17T02:52:15.124Z,101053.62
2018-03-17T02:54:44.663Z,101054.87
2018-03-17T02:57:13.935Z,101053.83
2018-03-17T02:59:45.939Z,101056.34
2018-03-17T03:02:15.973Z,101047.34
2018-03-17T03:04:45.293Z,101061.19
2018-03-17T03:07:13.633Z,101052.88
2018-03-17T03:09:42.886Z,101056.34
2018-03-17T03:12:11.190Z,101061.32
2018-03-17T03:14:39.531Z,101060.08
2018-03-17T03:17:09.307Z,101068.33
2018-03-17T03:19:39.138Z,101060.48
2018-03-17T03:22:09.457Z,101064.23
2018-03-17T03:24:37.898Z,101064.60
2018-03-17T03:27:06.288Z,101069.17
2018-03-17T03:29:34.656Z,101050.53
2018-03-17T03:32:03.070Z,101069.58
2018-03-17T03:34:33.151Z,101069.08
2018-03-17T03:37:01.459Z,101075.59
2018-03-17T03:39:30.070Z,101066.59
2018-03-17T03:41:59.291Z,101060.80
2018-03-17T03:44:27.795Z,101062.17
2018-03-17T03:46:56.117Z,101067.03
2018-03-17T03:49:25.191Z,101058.65
2018-03-17T03:51:53.506Z,101065.64
2018-03-17T03:54:22.587Z,101057.55
2018-03-17T03:56:50.894Z,101066.47
2018-03-17T03:59:19.962Z,101064.05
2018-03-17T04:01:48.281Z,101047.49
2018-03-17T04:04:17.363Z,101074.57
2018-03-17T04:06:45.653Z,101069.78
2018-03-17T04:09:14.742Z,101059.67
2018-03-17T04:11:43.047Z,101056.76
2018-03-17T04:14:11.404Z,101067.45
2018-03-17T04:16:40.465Z,101059.97
2018-03-17T04:19:08.822Z,101065.92
2018-03-17T04:21:37.130Z,101072.08
2018-03-17T04:24:05.461Z,101075.05
2018-03-17T04:26:33.781Z,101060.16
2018-03-17T04:29:02.243Z,101059.05
2018-03-17T04:31:30.539Z,101066.53
2018-03-17T04:33:58.829Z,101058.14
2018-03-17T04:36:27.211Z,101076.27
2018-03-17T04:38:55.544Z,101059.55
2018-03-17T04:41:24.633Z,101061.27
2018-03-17T04:43:53.696Z,101072.14
2018-03-17T04:46:22.072Z,101069.64
2018-03-17T04:48:50.528Z,101061.95
2018-03-17T04:51:18.892Z,101068.53
2018-03-17T04:53:47.327Z,101069.22
2018-03-17T04:56:15.638Z,101063.60
2018-03-17T04:58:45.432Z,101058.08
2018-03-17T05:01:13.958Z,101059.05
2018-03-17T05:03:42.272Z,101071.98
2018-03-17T05:06:10.718Z,101058.55
2018-03-17T05:08:39.102Z,101079.72
2018-03-17T05:11:07.419Z,101074.53
2018-03-17T05:13:35.718Z,101076.97
2018-03-17T05:16:04.184Z,101072.73
2018-03-17T05:18:32.504Z,101057.99
2018-03-17T05:21:01.568Z,101081.17
2018-03-17T05:23:29.893Z,101074.80
2018-03-17T05:25:59.048Z,101084.50
2018-03-17T05:28:27.374Z,101086.70
2018-03-17T05:30:55.670Z,101081.87
2018-03-17T05:33:23.969Z,101086.01
2018-03-17T05:35:52.276Z,101072.98
2018-03-17T05:38:20.582Z,101084.08
2018-03-17T05:40:49.661Z,101090.02
2018-03-17T05:43:18.044Z,101094.86
2018-03-17T05:45:47.193Z,101084.95
2018-03-17T05:48:15.688Z,101095.53
2018-03-17T05:50:43.988Z,101089.35
2018-03-17T05:53:12.287Z,101075.45
2018-03-17T05:55:41.281Z,101094.13
2018-03-17T05:58:09.580Z,101098.84
2018-03-17T06:00:38.659Z,101089.71
2018-03-17T06:03:06.960Z,101082.17
2018-03-17T06:05:36.043Z,101089.23
2018-03-17T06:08:04.361Z,101090.67
2018-03-17T06:10:32.678Z,101090.26
2018-03-17T06:13:00.990Z,101089.48
2018-03-17T06:15:30.061Z,101104.94
2018-03-17T06:17:58.347Z,101108.30
2018-03-17T06:20:26.676Z,101118.14
2018-03-17T06:22:54.972Z,101105.42
2018-03-17T06:25:26.590Z,101098.43
2018-03-17T06:27:55.784Z,101102.14
2018-03-17T06:30:24.885Z,101111.02
2018-03-17T06:32:53.951Z,101108.68
2018-03-17T06:35:22.282Z,101117.81
2018-03-17T06:37:50.644Z,101110.12
2018-03-17T06:40:20.521Z,101099.77
2018-03-17T06:42:48.828Z,101103.07
2018-03-17T06:45:17.942Z,101106.20
2018-03-17T06:47:47.023Z,101102.67
2018-03-17T06:50:16.170Z,101103.50
2018-03-17T06:52:44.486Z,101111.06
2018-03-17T06:55:12.798Z,101116.63
2018-03-17T06:57:41.898Z,101116.88
2018-03-17T07:00:10.968Z,101117.61
2018-03-17T07:02:40.785Z,101117.33
2018-03-17T07:05:09.094Z,101112.30
2018-03-17T07:07:38.302Z,101101.65
2018-03-17T07:10:06.607Z,101105.45
2018-03-17T07:12:34.923Z,101100.05
2018-03-17T07:15:03.251Z,101094.77
2018-03-17T07:17:31.565Z,101101.23
2018-03-17T07:19:59.887Z,101098.02
2018-03-17T07:22:28.974Z,101090.92
2018-03-17T07:24:58.061Z,101097.97
2018-03-17T07:27:26.364Z,101102.64
2018-03-17T07:29:55.446Z,101106.00
2018-03-17T07:32:23.774Z,101093.85
2018-03-17T07:34:52.070Z,101097.09
2018-03-17T07:37:20.396Z,101095.98
2018-03-17T07:39:49.520Z,101106.52
2018-03-17T07:42:17.830Z,101090.70
2018-03-17T07:44:46.288Z,101100.01
2018-03-17T07:47:14.585Z,101090.56
2018-03-17T07:49:42.892Z,101098.04
2018-03-17T07:52:11.193Z,101097.97
2018-03-17T07:54:40.283Z,101108.08
2018-03-17T07:57:08.584Z,101118.47
2018-03-17T07:59:37.715Z,101120.77
2018-03-17T08:02:06.034Z,101116.36
2018-03-17T08:04:34.345Z,101122.00
2018-03-17T08:07:03.450Z,101093.56
2018-03-17T08:09:32.544Z,101119.36
2018-03-17T08:12:01.640Z,101123.53
2018-03-17T08:14:30.724Z,101111.58
2018-03-17T08:16:59.800Z,101096.58
2018-03-17T08:19:28.126Z,101122.47
2018-03-17T08:21:57.889Z,101121.09
2018-03-17T08:24:26.204Z,101099.88
2018-03-17T08:26:55.280Z,101115.30
2018-03-17T08:29:23.586Z,101116.48
2018-03-17T08:31:52.674Z,101121.57
2018-03-17T08:34:21.755Z,101106.88
2018-03-17T08:36:50.173Z,101116.17
2018-03-17T08:39:19.288Z,101125.66
2018-03-17T08:41:47.614Z,101112.09
2018-03-17T08:44:16.008Z,101113.95
2018-03-17T08:46:45.133Z,101120.55
2018-03-17T08:49:14.205Z,101111.71
2018-03-17T08:51:43.268Z,101114.11
2018-03-17T08:54:11.653Z,101110.56
2018-03-17T08:56:40.132Z,101095.19
2018-03-17T08:59:08.451Z,101091.23
2018-03-17T09:01:37.654Z,101109.70
2018-03-17T09:04:06.010Z,101100.48
2018-03-17T09:06:34.321Z,101087.91
2018-03-17T09:09:03.419Z,101096.17
2018-03-17T09:11:32.555Z,101099.93
2018-03-17T09:14:00.874Z,101080.50
2018-03-17T09:16:29.192Z,101106.17
2018-03-17T09:18:57.495Z,101098.98
2018-03-17T09:21:25.797Z,101067.79
2018-03-17T09:23:54.129Z,101097.78
2018-03-17T09:26:23.195Z,101092.19
2018-03-17T09:28:51.744Z,101095.54
2018-03-17T09:31:20.340Z,101098.41
2018-03-17T09:33:48.909Z,101092.98
2018-03-17T09:36:18.035Z,101104.91
2018-03-17T09:38:47.074Z,101093.78
2018-03-17T09:41:18.010Z,101099.28
2018-03-17T09:43:48.730Z,101096.64
2018-03-17T09:46:19.421Z,101090.66
2018-03-17T09:48:49.681Z,101086.30
2018-03-17T09:51:21.455Z,101081.81
2018-03-17T09:53:51.611Z,101090.77
2018-03-17T09:56:20.110Z,101084.47
2018-03-17T09:58:48.448Z,101096.99
2018-03-17T10:01:17.534Z,101097.03
2018-03-17T10:03:46.078Z,101097.39
2018-03-17T10:06:14.424Z,101100.45
2018-03-17T10:08:43.783Z,101079.81
2018-03-17T10:11:12.155Z,101096.02
2018-03-17T10:13:43.488Z,101078.84
2018-03-17T10:16:11.915Z,101096.39
2018-03-17T10:18:40.556Z,101103.53
2018-03-17T10:21:08.850Z,101095.33
2018-03-17T10:23:37.223Z,101057.38
2018-03-17T10:26:05.515Z,101086.48
2018-03-17T10:28:33.799Z,101086.23
2018-03-17T10:31:02.191Z,101082.52
2018-03-17T10:33:32.392Z,101079.26
2018-03-17T10:36:01.799Z,101080.73
2018-03-17T10:38:30.815Z,101082.24
2018-03-17T10:40:59.339Z,101068.73
2018-03-17T10:43:28.996Z,101069.45
2018-03-17T10:45:57.320Z,101063.36
2018-03-17T10:48:25.620Z,101066.25
2018-03-17T10:50:54.562Z,101064.98
2018-03-17T10:53:23.780Z,101054.04
2018-03-17T10:55:52.077Z,101052.44
2018-03-17T10:58:21.297Z,101054.05
2018-03-17T11:00:54.490Z,101057.16
2018-03-17T11:03:23.538Z,101056.97
2018-03-17T11:05:51.877Z,101043.92
2018-03-17T11:08:20.144Z,101051.58
2018-03-17T11:10:49.336Z,101043.91
2018-03-17T11:13:18.419Z,101035.53
2018-03-17T11:15:46.732Z,101038.14
2018-03-17T11:18:15.040Z,101033.27
2018-03-17T11:20:44.292Z,101034.48
2018-03-17T11:23:13.974Z,101033.70
2018-03-17T11:25:42.288Z,101038.44
2018-03-17T11:28:11.358Z,101024.20
2018-03-17T11:30:40.085Z,101031.95
2018-03-17T11:33:08.391Z,101019.86
2018-03-17T11:35:36.710Z,101024.92
2018-03-17T11:38:05.172Z,101018.92
2018-03-17T11:40:33.474Z,101027.36
2018-03-17T11:43:02.553Z,101015.68
2018-03-17T11:45:30.864Z,101022.22
2018-03-17T11:47:59.960Z,101027.13
2018-03-17T11:50:28.268Z,101020.11
2018-03-17T11:52:56.572Z,101017.03
2018-03-17T11:55:24.948Z,101025.91
2018-03-17T11:57:53.278Z,101025.42
2018-03-17T12:00:22.348Z,100995.65
2018-03-17T12:02:50.721Z,100999.86
2018-03-17T12:05:19.044Z,100995.75
2018-03-17T12:07:48.138Z,101004.98
2018-03-17T12:10:17.219Z,100995.33
2018-03-17T12:12:45.535Z,101006.02
2018-03-17T12:15:14.608Z,101000.38
2018-03-17T12:17:42.923Z,100989.20
2018-03-17T12:20:11.314Z,100988.73
2018-03-17T12:22:39.722Z,100981.33
2018-03-17T12:25:08.039Z,100983.84
2018-03-17T12:27:37.133Z,100983.13
2018-03-17T12:30:05.458Z,100977.00
2018-03-17T12:32:33.830Z,100982.58
2018-03-17T12:35:02.210Z,100979.05
2018-03-17T12:37:30.649Z,100966.33
2018-03-17T12:39:59.037Z,100963.23
2018-03-17T12:42:27.526Z,100960.43
2018-03-17T12:44:55.854Z,100961.97
2018-03-17T12:47:24.231Z,100961.55
2018-03-17T12:49:52.554Z,100956.47
2018-03-17T12:52:21.644Z,100947.84
2018-03-17T12:54:50.063Z,100951.30
2018-03-17T12:57:18.415Z,100946.23
2018-03-17T12:59:46.766Z,100941.67
2018-03-17T13:04:43.826Z,100950.08
2018-03-17T13:07:12.249Z,100946.20
2018-03-17T13:09:40.740Z,100936.22
2018-03-17T13:12:09.066Z,100956.55
2018-03-17T13:14:37.390Z,100945.80
2018-03-17T13:17:05.705Z,100955.58
2018-03-17T13:19:34.786Z,100945.79
2018-03-17T13:22:03.347Z,100928.56
2018-03-17T13:24:31.693Z,100935.02
2018-03-17T13:27:17.904Z,100943.09
2018-03-17T13:29:46.262Z,100932.23
2018-03-17T13:32:32.188Z,100931.58
2018-03-17T13:35:01.563Z,100930.62
2018-03-17T13:37:38.287Z,100922.70
2018-03-17T13:43:13.985Z,100930.32
2018-03-17T13:45:42.329Z,100917.58
2018-03-17T13:48:13.040Z,100915.23
2018-03-17T13:50:41.366Z,100911.95
2018-03-17T13:53:09.685Z,100908.06
2018-03-17T13:55:38.719Z,100918.44
2018-03-17T13:58:07.829Z,100911.81
2018-03-17T14:00:36.916Z,100896.52
2018-03-17T14:03:06.252Z,100909.97
2018-03-17T14:05:34.606Z,100919.50
2018-03-17T14:08:03.799Z,100932.35
2018-03-17T14:10:32.231Z,100934.06
2018-03-17T14:13:00.633Z,100932.91
2018-03-17T14:15:28.947Z,100912.34
2018-03-17T14:17:58.081Z,100922.13
2018-03-17T14:20:26.406Z,100928.97
2018-03-17T14:22:56.806Z,100923.12
2018-03-17T14:25:26.717Z,100931.55
2018-03-17T14:27:55.043Z,100925.16
2018-03-17T14:30:23.385Z,100920.15
2018-03-17T14:32:51.757Z,100914.13
2018-03-17T14:35:20.067Z,100925.48
2018-03-17T14:37:48.401Z,100910.62
2018-03-17T14:40:16.727Z,100933.72
2018-03-17T14:42:45.065Z,100931.56
2018-03-17T14:45:13.660Z,100920.33
2018-03-17T14:47:43.189Z,100919.97
2018-03-17T14:50:11.519Z,100912.96
2018-03-17T14:52:40.624Z,100915.34
2018-03-17T14:55:09.712Z,100928.97
2018-03-17T14:57:38.791Z,100915.06
2018-03-17T15:00:07.133Z,100910.93
2018-03-17T15:02:35.452Z,100912.38
2018-03-17T15:05:05.307Z,100915.75
2018-03-17T15:07:33.651Z,100918.61
2018-03-17T15:10:01.971Z,100931.69
2018-03-17T15:12:30.320Z,100920.86
2018-03-17T15:14:58.644Z,100907.27
2018-03-17T15:17:27.304Z,100889.58
2018-03-17T15:19:55.813Z,100932.54
2018-03-17T15:22:24.141Z,100916.03
2018-03-17T15:24:53.970Z,100916.46
2018-03-17T15:27:22.281Z,100909.09
2018-03-17T15:29:50.611Z,100904.10
2018-03-17T15:32:19.001Z,100912.00
2018-03-17T15:34:47.409Z,100913.15
2018-03-17T15:37:16.527Z,100906.77
2018-03-17T15:39:44.855Z,100919.02
2018-03-17T15:42:13.208Z,100907.70
2018-03-17T15:44:41.525Z,100899.08
2018-03-17T15:47:10.607Z,100905.26
2018-03-17T15:49:38.953Z,100930.56
2018-03-17T15:52:07.316Z,100896.88
2018-03-17T15:54:36.415Z,100916.01
2018-03-17T15:57:04.740Z,100916.87
2018-03-17T15:59:33.108Z,100919.98
2018-03-17T16:02:01.487Z,100913.59
2018-03-17T16:04:29.818Z,100914.69
2018-03-17T16:06:58.905Z,100909.67
2018-03-17T16:09:28.013Z,100926.24
2018-03-17T16:11:57.286Z,100915.23
2018-03-17T16:14:25.623Z,100908.61
2018-03-17T16:16:53.961Z,100910.84
2018-03-17T16:19:22.406Z,100921.34
2018-03-17T16:21:50.770Z,100909.53
2018-03-17T16:24:19.978Z,100920.14
2018-03-17T16:26:48.340Z,100921.89
2018-03-17T16:29:17.521Z,100918.98
2018-03-17T16:31:45.836Z,100918.78
2018-03-17T16:34:14.279Z,100930.38
2018-03-17T16:36:46.643Z,100924.47
2018-03-17T16:39:15.020Z,100920.55
2018-03-17T16:41:43.311Z,100922.80
2018-03-17T16:44:11.751Z,100929.81
2018-03-17T16:46:40.084Z,100926.77
2018-03-17T16:49:09.279Z,100909.72
2018-03-17T16:51:37.625Z,100925.96
2018-03-17T16:54:05.947Z,100946.63
2018-03-17T16:56:35.056Z,100911.05
2018-03-17T16:59:04.157Z,100939.31
2018-03-17T17:01:33.250Z,100950.92
2018-03-17T17:04:02.340Z,100940.33
2018-03-17T17:06:30.694Z,100943.48
2018-03-17T17:08:59.127Z,100952.84
2018-03-17T17:11:27.461Z,100960.97
2018-03-17T17:13:55.778Z,100947.12
2018-03-17T17:16:24.126Z,100941.16
2018-03-17T17:18:52.466Z,100955.63
2018-03-17T17:21:20.822Z,100961.91
2018-03-17T17:23:49.925Z,100952.47
2018-03-17T17:26:19.024Z,100971.75
2018-03-17T17:28:48.185Z,100960.49
2018-03-17T17:31:16.527Z,100962.16
2018-03-17T17:33:44.862Z,100975.64
2018-03-17T17:36:13.195Z,100970.92
2018-03-17T17:38:41.543Z,100973.67
2018-03-17T17:41:10.623Z,100976.91
2018-03-17T17:43:39.721Z,100973.45
2018-03-17T17:46:08.899Z,100974.83
2018-03-17T17:48:37.809Z,100984.06
2018-03-17T17:51:06.134Z,100992.95
2018-03-17T17:53:34.478Z,101010.98
2018-03-17T17:56:02.785Z,101004.58
2018-03-17T17:58:31.116Z,101004.72
2018-03-17T18:00:59.463Z,100999.84
2018-03-17T18:03:27.799Z,101015.44
2018-03-17T18:05:56.909Z,101013.91
2018-03-17T18:08:26.003Z,101004.28
2018-03-17T18:10:55.135Z,101009.69
2018-03-17T18:13:23.472Z,101005.81
2018-03-17T18:15:51.810Z,101027.91
2018-03-17T18:18:20.130Z,101024.28
2018-03-17T18:20:49.237Z,101020.95
2018-03-17T18:23:18.336Z,101035.72
2018-03-17T18:25:47.439Z,101016.09
2018-03-17T18:28:15.797Z,101026.56
2018-03-17T18:30:44.148Z,101021.58
2018-03-17T18:33:12.520Z,101036.48
2018-03-17T18:35:40.865Z,101032.66
2018-03-17T18:38:09.973Z,101029.41
2018-03-17T18:40:38.317Z,101031.07
2018-03-17T18:43:06.675Z,101039.59
2018-03-17T18:45:35.019Z,101033.77
2018-03-17T18:48:03.381Z,101043.27
2018-03-17T18:50:32.547Z,101042.51
2018-03-17T18:53:00.904Z,101030.23
2018-03-17T18:55:29.248Z,101038.28
2018-03-17T18:57:58.368Z,101045.76
2018-03-17T19:00:26.828Z,101039.66
2018-03-17T19:02:55.932Z,101038.62
2018-03-17T19:05:25.037Z,101052.00
2018-03-17T19:07:54.153Z,101036.89
2018-03-17T19:10:22.513Z,101041.47
2018-03-17T19:12:51.633Z,101050.64
2018-03-17T19:15:20.134Z,101048.91
2018-03-17T19:17:48.479Z,101037.06
2018-03-17T19:20:16.861Z,101040.53
2018-03-17T19:22:46.045Z,101041.36
2018-03-17T19:25:14.401Z,101056.32
2018-03-17T19:27:42.757Z,101053.14
2018-03-17T19:30:11.117Z,101061.21
2018-03-17T19:32:39.543Z,101054.56
2018-03-17T19:35:07.867Z,101059.48
2018-03-17T19:37:37.036Z,101049.64
2018-03-17T19:40:05.579Z,101054.08
2018-03-17T19:42:33.951Z,101070.78
2018-03-17T19:45:02.313Z,101063.02
2018-03-17T19:47:31.449Z,101069.81
2018-03-17T19:49:59.808Z,101066.48
2018-03-17T19:52:28.153Z,101064.55
2018-03-17T19:54:56.501Z,101065.27
2018-03-17T19:57:24.851Z,101061.14
2018-03-17T19:59:53.218Z,101072.09
2018-03-17T20:02:21.600Z,101076.12
2018-03-17T20:04:50.724Z,101060.11
2018-03-17T20:07:19.081Z,101071.54
2018-03-17T20:09:47.454Z,101078.27
2018-03-17T20:12:16.606Z,101077.11
2018-03-17T20:14:44.968Z,101081.27
2018-03-17T20:17:13.320Z,101076.14
2018-03-17T20:19:42.507Z,101072.05
2018-03-17T20:22:11.633Z,101077.52
2018-03-17T20:24:39.975Z,101083.77
2018-03-17T20:27:08.313Z,101085.56
2018-03-17T20:29:36.673Z,101081.13
2018-03-17T20:32:05.067Z,101094.15
2018-03-17T20:34:33.453Z,101092.62
2018-03-17T20:37:01.883Z,101083.34
2018-03-17T20:39:31.723Z,101087.42
2018-03-17T20:42:00.858Z,101098.65
2018-03-17T20:44:29.204Z,101090.27
2018-03-17T20:46:58.341Z,101099.55
2018-03-17T20:49:26.724Z,101105.52
2018-03-17T20:51:55.081Z,101111.68
2018-03-17T20:54:23.730Z,101104.88
2018-03-17T20:56:52.099Z,101114.93
2018-03-17T20:59:20.461Z,101115.78
2018-03-17T21:01:48.827Z,101102.07
2018-03-17T21:04:17.198Z,101117.94
2018-03-17T21:06:46.302Z,101120.35
2018-03-17T21:09:14.673Z,101114.73
2018-03-17T21:11:43.074Z,101114.94
2018-03-17T21:14:11.439Z,101116.33
2018-03-17T21:16:39.803Z,101119.58
2018-03-17T21:19:08.913Z,101115.14
2018-03-17T21:21:37.333Z,101127.36
2018-03-17T21:24:05.710Z,101119.11
2018-03-17T21:26:34.054Z,101125.05
2018-03-17T21:29:03.180Z,101129.76
2018-03-17T21:31:31.588Z,101123.11
2018-03-17T21:33:59.927Z,101129.16
2018-03-17T21:36:28.288Z,101135.73
2018-03-17T21:38:57.399Z,101117.86
2018-03-17T21:41:26.503Z,101114.20
2018-03-17T21:43:54.838Z,101131.14
2018-03-17T21:46:23.230Z,101124.80
2018-03-17T21:48:51.573Z,101118.83
2018-03-17T21:51:19.917Z,101133.45
2018-03-17T21:53:49.041Z,101135.88
2018-03-17T21:56:17.431Z,101131.30
2018-03-17T21:58:45.782Z,101138.62
2018-03-17T22:01:14.693Z,101136.00
2018-03-17T22:03:43.027Z,101131.16
2018-03-17T22:06:12.124Z,101128.66
2018-03-17T22:08:40.603Z,101137.88
2018-03-17T22:11:09.738Z,101137.32
2018-03-17T22:13:38.881Z,101150.61
2018-03-17T22:16:08.062Z,101136.14
2018-03-17T22:18:36.388Z,101144.59
2018-03-17T22:21:04.716Z,101142.78
2018-03-17T22:23:33.054Z,101148.12
2018-03-17T22:26:02.140Z,101143.55
2018-03-17T22:28:30.492Z,101138.14
2018-03-17T22:30:58.802Z,101144.52
2018-03-17T22:33:27.126Z,101141.53
2018-03-17T22:35:55.458Z,101129.13
2018-03-17T22:38:23.804Z,101143.73
2018-03-17T22:40:52.132Z,101149.83
2018-03-17T22:43:21.229Z,101145.33
2018-03-17T22:45:49.551Z,101136.84
2018-03-17T22:48:17.874Z,101146.78
2018-03-17T22:50:46.189Z,101137.11
2018-03-17T22:53:15.285Z,101124.36
2018-03-17T22:55:44.419Z,101148.18
2018-03-17T22:58:12.744Z,101175.94
2018-03-17T23:00:41.095Z,101150.11
2018-03-17T23:03:10.174Z,101151.30
2018-03-17T23:05:38.484Z,101152.67
2018-03-17T23:08:06.804Z,101170.45
2018-03-17T23:10:35.882Z,101147.89
2018-03-17T23:13:04.190Z,101150.31
2018-03-17T23:15:33.344Z,101153.55
2018-03-17T23:18:01.672Z,101151.76
2018-03-17T23:20:30.767Z,101167.61
2018-03-17T23:22:59.854Z,101163.73
2018-03-17T23:25:28.924Z,101142.08
2018-03-17T23:27:57.286Z,101156.61
2018-03-17T23:30:25.610Z,101168.43
2018-03-17T23:32:54.680Z,101160.76
2018-03-17T23:35:22.996Z,101159.66
2018-03-17T23:37:51.413Z,101166.02
2018-03-17T23:40:19.714Z,101165.82
2018-03-17T23:42:48.022Z,101167.14
2018-03-17T23:45:16.368Z,101169.64
2018-03-17T23:47:44.708Z,101166.78
2018-03-17T23:50:13.782Z,101151.84
2018-03-17T23:52:42.879Z,101172.12
2018-03-17T23:55:11.196Z,101172.53
2018-03-17T23:57:39.579Z,101180.48
